Etusivu
METAR-TAF:

METAR-TAF

Lentoasemat :

Tunis, Tunisia

Leveyspiiri: 36-50N, Pituuspiiri: 010-14E, korkeus merenpinnasta: 3 m

Tämänhetkinen sää

Tämä raportti tehtiin 36 minuuttia sitten, kello 22.00 UTC
Tuuli 9 kn lännestä
Lämpötila 21°C
Kosteus 60%
Ilmanpaine 1018 hPa
Näkyvyys 10 km tai enemmän
Muutamia pilviä 2600 ft:n korkeudessa

METAR: DTTA 192200Z 27009KT 9999 FEW026 21/13 Q1018 NOSIG

Aika: 23:36 (22:36 UTC)

Sääennuste

Tämä raportti tehtiin 4 tuntia ja 56 minuuttia sitten, kello 17.40 UTC
Ennuste voimassa 19. päivästä klo 18 UTC - 20. päivään klo 18 UTC
Tuuli 13 kn lännestä/luoteesta
Näkyvyys 10 km tai enemmän
Hajanaisia pilviä 2600 ft:n korkeudessa
Tulossa
19. päivästä klo 20 UTC - 19. päivään klo 22 UTC
Tuuli 5 kn lännestä
Tulossa
20. päivästä klo 09 UTC - 20. päivään klo 17 UTC
Tuuli 18 kn lännestä/luoteesta

TAF: DTTA 191740Z 1918/2018 30013KT 9999 SCT026 BECMG 1920/1922 27005KT BECMG 2009/2017 30018KT

Säähavainnot ja -ennusteet yli 4000 lentoasemalta (METAR- ja TAF-raportit).

Käytössä olevat sääasemat on merkitty karttaan keltaisilla ja punaisilla pisteillä.

Aseta hiiri pisteen päälle nähdäksesi sääaseman nimen.

Klikkaa sitten nähdäksesi säähavainnot ja -ennusteet.

Kartan vaihtaminen: klikkaa mustalla rastilla varustettuja vihreitä pisteitä, niin voit zoomata sisään; viivalla varustettua vihreää pistettä, niin voit zoomata ulos tai vihreitä nuolia, niin pääset viereisille kartoille.


METAR-TAF: